createdAt,value
2022-09-15T02:39:58.270Z,95924.34
2022-09-15T02:45:02.077Z,95918.94
2022-09-15T02:50:04.778Z,95904.16
2022-09-15T02:55:07.260Z,95875.53
2022-09-15T03:00:13.530Z,95903.28
2022-09-15T03:05:17.171Z,95888.78
2022-09-15T03:10:20.204Z,95889.22
2022-09-15T03:15:24.915Z,95888.13
2022-09-15T03:20:28.906Z,95909.91
2022-09-15T03:25:30.946Z,95898.00
2022-09-15T03:30:33.161Z,95879.16
2022-09-15T03:35:35.548Z,95914.88
2022-09-15T03:40:38.182Z,95906.50
2022-09-15T03:45:40.631Z,95875.81
2022-09-15T03:50:43.130Z,95877.75
2022-09-15T03:55:46.446Z,95904.53
2022-09-15T04:00:49.843Z,95876.97
2022-09-15T04:05:52.110Z,95886.31
2022-09-15T04:10:55.362Z,95906.41
2022-09-15T04:16:07.312Z,95901.63
2022-09-15T04:21:14.998Z,95910.75
2022-09-15T04:26:28.375Z,95910.88
2022-09-15T04:31:30.824Z,95900.03
2022-09-15T04:36:33.152Z,95879.94
2022-09-15T04:41:35.502Z,95894.97
2022-09-15T04:46:38.080Z,95879.16
2022-09-15T04:51:40.602Z,95896.66
2022-09-15T04:56:42.992Z,95877.09
2022-09-15T05:01:45.889Z,95925.19
2022-09-15T05:06:48.427Z,95890.31
2022-09-15T05:11:50.655Z,95920.25
2022-09-15T05:16:52.745Z,95901.34
2022-09-15T05:21:54.919Z,95867.94
2022-09-15T05:26:57.222Z,95898.47
2022-09-15T05:31:59.477Z,95883.88
2022-09-15T05:37:02.203Z,95868.53
2022-09-15T05:42:04.799Z,95866.75
2022-09-15T05:47:06.964Z,95868.53
2022-09-15T05:52:09.115Z,95852.13
2022-09-15T05:57:11.686Z,95830.41
2022-09-15T06:02:14.326Z,95840.81
2022-09-15T06:07:17.103Z,95841.88
2022-09-15T06:12:19.466Z,95813.13
2022-09-15T06:17:23.271Z,95816.97
2022-09-15T06:22:25.985Z,95790.41
2022-09-15T06:27:28.120Z,95764.69
2022-09-15T06:32:30.550Z,95761.41
2022-09-15T06:37:32.958Z,95765.13
2022-09-15T06:42:35.291Z,95784.50
2022-09-15T06:47:38.666Z,95771.66
2022-09-15T06:52:40.743Z,95776.66
2022-09-15T06:57:42.815Z,95777.72
2022-09-15T07:02:45.128Z,95769.59
2022-09-15T07:07:47.559Z,95760.22
2022-09-15T07:12:49.858Z,95755.03
2022-09-15T07:17:51.906Z,95757.38
2022-09-15T07:22:54.122Z,95758.06
2022-09-15T07:27:56.338Z,95769.09
2022-09-15T07:32:58.658Z,95759.78
2022-09-15T07:38:00.985Z,95771.53
2022-09-15T07:43:07.029Z,95763.63
2022-09-15T07:48:09.094Z,95779.16
2022-09-15T07:53:35.206Z,95783.13
2022-09-15T07:58:37.462Z,95745.78
2022-09-15T08:03:42.021Z,95745.97
2022-09-15T08:08:44.414Z,95764.25
2022-09-15T08:13:53.772Z,95761.75
2022-09-15T08:18:57.260Z,95760.06
2022-09-15T08:24:01.594Z,95744.78
2022-09-15T08:29:04.121Z,95744.25
2022-09-15T08:34:07.209Z,95751.06
2022-09-15T08:39:09.604Z,95733.06
2022-09-15T08:44:30.476Z,95748.56
2022-09-15T08:49:57.090Z,95743.84
2022-09-15T08:55:11.588Z,95744.75
2022-09-15T09:00:20.382Z,95738.34
2022-09-15T09:05:34.698Z,95744.50
2022-09-15T09:10:57.013Z,95729.53
2022-09-15T09:16:23.083Z,95729.03
2022-09-15T09:21:31.781Z,95728.69
2022-09-15T09:26:36.901Z,95724.34
2022-09-15T09:31:41.142Z,95737.59
2022-09-15T09:36:43.594Z,95734.25
2022-09-15T09:41:45.879Z,95720.84
2022-09-15T09:46:49.497Z,95702.88
2022-09-15T09:51:55.868Z,95731.41
2022-09-15T09:57:22.766Z,95710.69
2022-09-15T10:02:29.094Z,95732.22
2022-09-15T10:07:33.983Z,95724.56
2022-09-15T10:12:42.077Z,95705.97
2022-09-15T10:17:48.734Z,95699.50
2022-09-15T10:22:51.839Z,95704.63
2022-09-15T10:28:11.365Z,95704.31
2022-09-15T10:33:42.114Z,95702.13
2022-09-15T10:38:52.400Z,95695.03
2022-09-15T10:44:25.619Z,95689.88
2022-09-15T10:49:45.892Z,95691.22
2022-09-15T10:55:16.447Z,95686.72
2022-09-15T11:00:25.905Z,95684.28
2022-09-15T11:05:40.382Z,95690.22
2022-09-15T11:10:54.064Z,95676.91
2022-09-15T11:16:18.312Z,95669.25
2022-09-15T11:21:32.922Z,95642.63
2022-09-15T11:26:43.563Z,95641.91
2022-09-15T11:31:51.679Z,95659.22
2022-09-15T11:37:15.413Z,95645.06
2022-09-15T11:42:35.105Z,95636.63
2022-09-15T11:47:42.726Z,95660.06
2022-09-15T11:52:52.443Z,95661.72
2022-09-15T11:58:03.922Z,95671.09
2022-09-15T12:03:18.401Z,95659.53
2022-09-15T12:08:34.330Z,95654.16
2022-09-15T12:13:37.345Z,95643.31
2022-09-15T12:18:58.134Z,95651.16
2022-09-15T12:24:34.065Z,95654.47
2022-09-15T12:29:42.131Z,95637.03
2022-09-15T12:35:01.711Z,95662.09
2022-09-15T12:40:07.888Z,95646.78
2022-09-15T12:45:25.551Z,95652.19
2022-09-15T12:50:47.021Z,95633.56
2022-09-15T12:55:55.723Z,95593.09
2022-09-15T13:01:19.778Z,95642.84
2022-09-15T13:06:27.201Z,95637.41
2022-09-15T13:11:38.749Z,95628.00
2022-09-15T13:16:41.944Z,95645.72
2022-09-15T13:22:06.798Z,95621.84
2022-09-15T13:27:10.457Z,95628.19
2022-09-15T13:32:32.016Z,95636.38
2022-09-15T13:38:20.052Z,95649.25
2022-09-15T13:43:59.722Z,95633.25
2022-09-15T13:49:20.306Z,95616.84
2022-09-15T13:54:22.700Z,95617.91
2022-09-15T13:59:30.281Z,95607.09
2022-09-15T14:04:32.738Z,95616.44
2022-09-15T14:09:45.344Z,95589.06
2022-09-15T14:14:53.993Z,95595.25
2022-09-15T14:20:30.449Z,95590.13
2022-09-15T14:25:35.765Z,95585.03
2022-09-15T14:30:44.616Z,95595.06
2022-09-15T14:35:47.687Z,95582.84
2022-09-15T14:40:57.148Z,95601.19
2022-09-15T14:46:15.973Z,95593.75
2022-09-15T14:51:24.854Z,95564.69
2022-09-15T14:56:33.209Z,95597.03
2022-09-15T15:01:37.491Z,95581.53
2022-09-15T15:12:38.910Z,95564.00
2022-09-15T15:17:57.808Z,95591.09
2022-09-15T15:23:21.259Z,95580.50
2022-09-15T15:28:36.832Z,95608.19
2022-09-15T15:33:49.577Z,95581.44
2022-09-15T15:38:54.900Z,95590.97
2022-09-15T15:44:17.539Z,95597.72
2022-09-15T15:49:26.533Z,95595.06
2022-09-15T15:54:32.575Z,95592.31
2022-09-15T15:59:34.884Z,95582.28
2022-09-15T16:04:36.994Z,95598.78
2022-09-15T16:09:40.042Z,95608.63
2022-09-15T16:14:52.281Z,95584.94
2022-09-15T16:19:57.302Z,95559.00
2022-09-15T16:24:59.540Z,95564.69
2022-09-15T16:30:08.653Z,95588.19
2022-09-15T16:35:25.053Z,95588.16
2022-09-15T16:40:30.491Z,95619.97
2022-09-15T16:45:39.726Z,95597.47
2022-09-15T16:51:16.940Z,95603.75
2022-09-15T16:56:16.663Z,95607.81
2022-09-15T17:01:21.581Z,95625.88
2022-09-15T17:06:24.267Z,95612.53
2022-09-15T17:11:27.938Z,95620.72
2022-09-15T17:16:30.090Z,95599.03
2022-09-15T17:21:32.156Z,95631.75
2022-09-15T17:26:34.614Z,95639.94
2022-09-15T17:31:37.250Z,95640.47
2022-09-15T17:36:42.208Z,95603.72
2022-09-15T17:41:45.021Z,95645.06
2022-09-15T17:46:47.117Z,95627.88
2022-09-15T17:51:49.319Z,95641.22
2022-09-15T17:56:53.702Z,95649.59
2022-09-15T18:01:56.725Z,95635.63
2022-09-15T18:06:59.088Z,95632.38
2022-09-15T18:12:01.387Z,95619.25
2022-09-15T18:17:03.539Z,95656.34
2022-09-15T18:22:06.466Z,95639.75
2022-09-15T18:27:09.239Z,95628.06
2022-09-15T18:32:11.503Z,95635.56
2022-09-15T18:37:13.976Z,95633.06
2022-09-15T18:42:16.217Z,95632.28
2022-09-15T18:47:18.253Z,95637.78
2022-09-15T18:52:20.498Z,95628.44
2022-09-15T18:57:23.022Z,95634.09
2022-09-15T19:02:25.156Z,95645.41
2022-09-15T19:07:28.708Z,95654.00
2022-09-15T19:12:31.158Z,95639.31
2022-09-15T19:17:33.627Z,95637.75
2022-09-15T19:22:36.922Z,95651.53
2022-09-15T19:27:40.168Z,95618.13
2022-09-15T19:32:43.040Z,95653.38
2022-09-15T19:37:45.624Z,95636.09
2022-09-15T19:42:55.949Z,95656.09
2022-09-15T19:47:59.506Z,95646.44
2022-09-15T19:53:01.553Z,95632.41
2022-09-15T19:58:03.664Z,95646.56
2022-09-15T20:03:05.917Z,95630.22
2022-09-15T20:08:08.270Z,95637.94
2022-09-15T20:13:10.595Z,95642.41
2022-09-15T20:18:13.588Z,95623.72
2022-09-15T20:23:15.835Z,95616.97
2022-09-15T20:28:17.874Z,95618.84
2022-09-15T20:33:19.956Z,95622.28
2022-09-15T20:38:22.084Z,95601.81
2022-09-15T20:43:24.415Z,95611.28
2022-09-15T20:48:29.613Z,95602.56
2022-09-15T20:53:32.174Z,95600.59
2022-09-15T20:58:35.821Z,95609.25
2022-09-15T21:09:06.042Z,95527.41
2022-09-15T21:14:08.280Z,95582.78
2022-09-15T21:19:12.856Z,95593.16
2022-09-15T21:24:14.927Z,95581.44
2022-09-15T21:29:16.975Z,95563.63
2022-09-15T21:34:19.503Z,95599.88
2022-09-15T21:39:21.808Z,95573.78
2022-09-15T21:44:24.223Z,95576.19
2022-09-15T21:49:26.610Z,95580.88
2022-09-15T21:54:28.712Z,95569.19
2022-09-15T21:59:30.849Z,95569.28
2022-09-15T22:04:33.129Z,95570.03
2022-09-15T22:09:38.146Z,95568.38
2022-09-15T22:14:40.206Z,95571.44
2022-09-15T22:19:42.749Z,95562.63
2022-09-15T22:24:45.313Z,95574.22
2022-09-15T22:29:47.430Z,95582.16
2022-09-15T23:03:33.346Z,95612.22
2022-09-15T23:08:36.603Z,95602.34
2022-09-15T23:13:42.033Z,95591.38
2022-09-15T23:18:44.553Z,95596.00
2022-09-15T23:23:49.441Z,95571.78
2022-09-15T23:28:51.703Z,95573.63
2022-09-15T23:33:53.879Z,95579.03
2022-09-15T23:38:56.105Z,95582.91
2022-09-15T23:44:00.028Z,95591.28
2022-09-15T23:49:02.274Z,95552.75
2022-09-15T23:54:04.987Z,95582.09
2022-09-15T23:59:07.166Z,95576.00
